sensor_id;sensor_type;location;lat;lon;timestamp;P1;durP1;ratioP1;P2;durP2;ratioP2
46487;SDS011;32202;48.780;9.204;2022-07-10T00:00:14;8.65;;;5.30;;
46487;SDS011;32202;48.780;9.204;2022-07-10T00:02:42;7.47;;;4.78;;
46487;SDS011;32202;48.780;9.204;2022-07-10T00:05:09;6.10;;;4.45;;
46487;SDS011;32202;48.780;9.204;2022-07-10T00:07:35;17.98;;;11.40;;
46487;SDS011;32202;48.780;9.204;2022-07-10T00:10:01;19.08;;;12.80;;
46487;SDS011;32202;48.780;9.204;2022-07-10T00:12:27;8.25;;;5.88;;
46487;SDS011;32202;48.780;9.204;2022-07-10T00:14:53;5.53;;;4.15;;
46487;SDS011;32202;48.780;9.204;2022-07-10T00:17:19;6.28;;;4.53;;
46487;SDS011;32202;48.780;9.204;2022-07-10T00:19:44;8.25;;;4.47;;
46487;SDS011;32202;48.780;9.204;2022-07-10T00:22:10;5.03;;;3.80;;
46487;SDS011;32202;48.780;9.204;2022-07-10T00:24:35;7.00;;;5.00;;
46487;SDS011;32202;48.780;9.204;2022-07-10T00:27:01;7.00;;;4.78;;
46487;SDS011;32202;48.780;9.204;2022-07-10T00:29:26;5.90;;;3.88;;
46487;SDS011;32202;48.780;9.204;2022-07-10T00:31:52;5.18;;;4.28;;
46487;SDS011;32202;48.780;9.204;2022-07-10T00:34:18;6.43;;;4.32;;
46487;SDS011;32202;48.780;9.204;2022-07-10T00:36:43;7.07;;;3.67;;
46487;SDS011;32202;48.780;9.204;2022-07-10T00:39:09;42.58;;;29.27;;
46487;SDS011;32202;48.780;9.204;2022-07-10T00:41:35;53.55;;;36.13;;
46487;SDS011;32202;48.780;9.204;2022-07-10T00:44:01;39.70;;;25.17;;
46487;SDS011;32202;48.780;9.204;2022-07-10T00:46:28;11.50;;;7.88;;
46487;SDS011;32202;48.780;9.204;2022-07-10T00:48:55;6.65;;;4.00;;
46487;SDS011;32202;48.780;9.204;2022-07-10T00:51:24;7.50;;;4.07;;
46487;SDS011;32202;48.780;9.204;2022-07-10T00:53:52;6.28;;;3.60;;
46487;SDS011;32202;48.780;9.204;2022-07-10T00:56:19;8.65;;;5.57;;
46487;SDS011;32202;48.780;9.204;2022-07-10T00:58:46;7.65;;;4.90;;
46487;SDS011;32202;48.780;9.204;2022-07-10T01:01:12;4.45;;;3.70;;
46487;SDS011;32202;48.780;9.204;2022-07-10T01:03:39;8.98;;;5.28;;
46487;SDS011;32202;48.780;9.204;2022-07-10T01:06:04;34.88;;;21.95;;
46487;SDS011;32202;48.780;9.204;2022-07-10T01:08:30;20.15;;;14.68;;
46487;SDS011;32202;48.780;9.204;2022-07-10T01:10:57;54.33;;;36.38;;
46487;SDS011;32202;48.780;9.204;2022-07-10T01:13:23;61.72;;;41.17;;
46487;SDS011;32202;48.780;9.204;2022-07-10T01:15:49;42.05;;;28.10;;
46487;SDS011;32202;48.780;9.204;2022-07-10T01:18:15;50.92;;;33.60;;
46487;SDS011;32202;48.780;9.204;2022-07-10T01:20:40;24.00;;;14.50;;
46487;SDS011;32202;48.780;9.204;2022-07-10T01:23:06;25.55;;;19.27;;
46487;SDS011;32202;48.780;9.204;2022-07-10T01:25:32;18.08;;;12.98;;
46487;SDS011;32202;48.780;9.204;2022-07-10T01:27:57;22.08;;;15.70;;
46487;SDS011;32202;48.780;9.204;2022-07-10T01:30:24;30.45;;;21.10;;
46487;SDS011;32202;48.780;9.204;2022-07-10T01:32:50;26.23;;;16.20;;
46487;SDS011;32202;48.780;9.204;2022-07-10T01:35:17;20.92;;;13.15;;
46487;SDS011;32202;48.780;9.204;2022-07-10T01:37:42;15.80;;;9.30;;
46487;SDS011;32202;48.780;9.204;2022-07-10T01:40:08;12.07;;;8.50;;
46487;SDS011;32202;48.780;9.204;2022-07-10T01:42:34;9.70;;;6.05;;
46487;SDS011;32202;48.780;9.204;2022-07-10T01:45:00;9.30;;;6.63;;
46487;SDS011;32202;48.780;9.204;2022-07-10T01:47:25;7.22;;;5.20;;
46487;SDS011;32202;48.780;9.204;2022-07-10T01:49:53;6.55;;;4.50;;
46487;SDS011;32202;48.780;9.204;2022-07-10T01:52:21;7.25;;;4.63;;
46487;SDS011;32202;48.780;9.204;2022-07-10T01:54:47;8.55;;;6.25;;
46487;SDS011;32202;48.780;9.204;2022-07-10T01:57:13;6.97;;;4.97;;
46487;SDS011;32202;48.780;9.204;2022-07-10T01:59:39;5.22;;;4.70;;
46487;SDS011;32202;48.780;9.204;2022-07-10T02:02:05;5.85;;;4.60;;
46487;SDS011;32202;48.780;9.204;2022-07-10T02:04:31;6.35;;;4.70;;
46487;SDS011;32202;48.780;9.204;2022-07-10T02:07:06;6.07;;;4.80;;
46487;SDS011;32202;48.780;9.204;2022-07-10T02:09:35;6.35;;;5.22;;
46487;SDS011;32202;48.780;9.204;2022-07-10T02:12:01;9.25;;;5.43;;
46487;SDS011;32202;48.780;9.204;2022-07-10T02:14:27;7.85;;;5.78;;
46487;SDS011;32202;48.780;9.204;2022-07-10T02:16:53;7.07;;;5.43;;
46487;SDS011;32202;48.780;9.204;2022-07-10T02:19:18;6.43;;;5.00;;
46487;SDS011;32202;48.780;9.204;2022-07-10T02:21:44;7.07;;;5.80;;
46487;SDS011;32202;48.780;9.204;2022-07-10T02:24:11;7.43;;;5.88;;
46487;SDS011;32202;48.780;9.204;2022-07-10T02:26:36;8.60;;;5.70;;
46487;SDS011;32202;48.780;9.204;2022-07-10T02:29:02;8.60;;;5.75;;
46487;SDS011;32202;48.780;9.204;2022-07-10T02:31:28;7.65;;;5.93;;
46487;SDS011;32202;48.780;9.204;2022-07-10T02:33:53;8.90;;;6.25;;
46487;SDS011;32202;48.780;9.204;2022-07-10T02:36:19;10.23;;;8.50;;
46487;SDS011;32202;48.780;9.204;2022-07-10T02:38:44;15.40;;;9.82;;
46487;SDS011;32202;48.780;9.204;2022-07-10T02:41:10;12.70;;;10.38;;
46487;SDS011;32202;48.780;9.204;2022-07-10T02:43:36;12.20;;;10.15;;
46487;SDS011;32202;48.780;9.204;2022-07-10T02:46:02;11.70;;;8.52;;
46487;SDS011;32202;48.780;9.204;2022-07-10T02:48:27;13.98;;;10.68;;
46487;SDS011;32202;48.780;9.204;2022-07-10T02:50:53;11.57;;;9.75;;
46487;SDS011;32202;48.780;9.204;2022-07-10T02:53:19;11.05;;;9.80;;
46487;SDS011;32202;48.780;9.204;2022-07-10T02:55:44;12.57;;;10.07;;
46487;SDS011;32202;48.780;9.204;2022-07-10T02:58:10;13.20;;;10.02;;
46487;SDS011;32202;48.780;9.204;2022-07-10T03:00:36;12.93;;;9.70;;
46487;SDS011;32202;48.780;9.204;2022-07-10T03:03:02;10.60;;;9.05;;
46487;SDS011;32202;48.780;9.204;2022-07-10T03:05:27;10.80;;;9.13;;
46487;SDS011;32202;48.780;9.204;2022-07-10T03:07:53;11.60;;;9.38;;
46487;SDS011;32202;48.780;9.204;2022-07-10T03:10:19;11.10;;;8.73;;
46487;SDS011;32202;48.780;9.204;2022-07-10T03:12:45;11.77;;;8.93;;
46487;SDS011;32202;48.780;9.204;2022-07-10T03:15:11;13.70;;;9.02;;
46487;SDS011;32202;48.780;9.204;2022-07-10T03:17:38;13.05;;;8.93;;
46487;SDS011;32202;48.780;9.204;2022-07-10T03:20:04;13.77;;;9.25;;
46487;SDS011;32202;48.780;9.204;2022-07-10T03:22:31;13.20;;;9.35;;
46487;SDS011;32202;48.780;9.204;2022-07-10T03:24:57;10.32;;;8.23;;
46487;SDS011;32202;48.780;9.204;2022-07-10T03:27:23;11.85;;;8.48;;
46487;SDS011;32202;48.780;9.204;2022-07-10T03:29:48;11.65;;;9.38;;
46487;SDS011;32202;48.780;9.204;2022-07-10T03:32:14;11.80;;;8.27;;
46487;SDS011;32202;48.780;9.204;2022-07-10T03:34:40;10.70;;;8.75;;
46487;SDS011;32202;48.780;9.204;2022-07-10T03:37:05;9.35;;;7.57;;
46487;SDS011;32202;48.780;9.204;2022-07-10T03:39:31;11.50;;;7.90;;
46487;SDS011;32202;48.780;9.204;2022-07-10T03:41:57;8.13;;;7.32;;
46487;SDS011;32202;48.780;9.204;2022-07-10T03:44:22;14.07;;;8.63;;
46487;SDS011;32202;48.780;9.204;2022-07-10T03:46:48;10.45;;;8.77;;
46487;SDS011;32202;48.780;9.204;2022-07-10T03:49:13;11.65;;;8.50;;
46487;SDS011;32202;48.780;9.204;2022-07-10T03:51:39;10.82;;;8.23;;
46487;SDS011;32202;48.780;9.204;2022-07-10T03:54:04;11.65;;;8.52;;
46487;SDS011;32202;48.780;9.204;2022-07-10T03:56:30;12.77;;;10.32;;
46487;SDS011;32202;48.780;9.204;2022-07-10T03:59:16;11.38;;;8.20;;
46487;SDS011;32202;48.780;9.204;2022-07-10T04:01:41;9.55;;;7.70;;
46487;SDS011;32202;48.780;9.204;2022-07-10T04:04:07;11.02;;;8.02;;
46487;SDS011;32202;48.780;9.204;2022-07-10T04:06:33;8.60;;;7.20;;
46487;SDS011;32202;48.780;9.204;2022-07-10T04:08:58;9.77;;;7.38;;
46487;SDS011;32202;48.780;9.204;2022-07-10T04:11:24;8.80;;;7.18;;
46487;SDS011;32202;48.780;9.204;2022-07-10T04:13:49;9.85;;;7.32;;
46487;SDS011;32202;48.780;9.204;2022-07-10T04:16:15;9.18;;;6.88;;
46487;SDS011;32202;48.780;9.204;2022-07-10T04:18:40;10.32;;;7.35;;
46487;SDS011;32202;48.780;9.204;2022-07-10T04:21:06;12.25;;;8.00;;
46487;SDS011;32202;48.780;9.204;2022-07-10T04:23:32;13.27;;;8.23;;
46487;SDS011;32202;48.780;9.204;2022-07-10T04:25:58;14.27;;;8.95;;
46487;SDS011;32202;48.780;9.204;2022-07-10T04:28:24;12.75;;;7.40;;
46487;SDS011;32202;48.780;9.204;2022-07-10T04:30:50;9.57;;;7.03;;
46487;SDS011;32202;48.780;9.204;2022-07-10T04:33:18;8.73;;;6.97;;
46487;SDS011;32202;48.780;9.204;2022-07-10T04:35:44;12.60;;;7.28;;
46487;SDS011;32202;48.780;9.204;2022-07-10T04:38:10;9.90;;;7.15;;
46487;SDS011;32202;48.780;9.204;2022-07-10T04:40:35;10.00;;;7.00;;
46487;SDS011;32202;48.780;9.204;2022-07-10T04:43:01;11.07;;;7.18;;
46487;SDS011;32202;48.780;9.204;2022-07-10T04:45:26;8.55;;;6.53;;
46487;SDS011;32202;48.780;9.204;2022-07-10T04:47:52;8.82;;;6.45;;
46487;SDS011;32202;48.780;9.204;2022-07-10T04:50:17;10.65;;;6.32;;
46487;SDS011;32202;48.780;9.204;2022-07-10T04:52:43;7.03;;;5.20;;
46487;SDS011;32202;48.780;9.204;2022-07-10T04:55:09;10.27;;;5.53;;
46487;SDS011;32202;48.780;9.204;2022-07-10T04:57:35;9.15;;;5.55;;
46487;SDS011;32202;48.780;9.204;2022-07-10T05:00:01;6.40;;;4.75;;
46487;SDS011;32202;48.780;9.204;2022-07-10T05:02:27;8.13;;;5.60;;
46487;SDS011;32202;48.780;9.204;2022-07-10T05:04:53;8.50;;;5.25;;
46487;SDS011;32202;48.780;9.204;2022-07-10T05:07:18;7.40;;;5.50;;
46487;SDS011;32202;48.780;9.204;2022-07-10T05:09:44;8.70;;;5.28;;
46487;SDS011;32202;48.780;9.204;2022-07-10T05:12:10;9.93;;;5.55;;
46487;SDS011;32202;48.780;9.204;2022-07-10T05:14:35;5.72;;;4.60;;
46487;SDS011;32202;48.780;9.204;2022-07-10T05:17:01;7.07;;;5.22;;
46487;SDS011;32202;48.780;9.204;2022-07-10T05:19:26;6.13;;;4.55;;
46487;SDS011;32202;48.780;9.204;2022-07-10T05:21:52;6.07;;;4.88;;
46487;SDS011;32202;48.780;9.204;2022-07-10T05:24:17;7.00;;;4.57;;
46487;SDS011;32202;48.780;9.204;2022-07-10T05:26:43;6.80;;;4.38;;
46487;SDS011;32202;48.780;9.204;2022-07-10T05:29:09;6.00;;;4.20;;
46487;SDS011;32202;48.780;9.204;2022-07-10T05:31:34;7.15;;;4.00;;
46487;SDS011;32202;48.780;9.204;2022-07-10T05:34:00;6.55;;;3.90;;
46487;SDS011;32202;48.780;9.204;2022-07-10T05:36:25;6.25;;;3.47;;
46487;SDS011;32202;48.780;9.204;2022-07-10T05:38:51;5.88;;;3.20;;
46487;SDS011;32202;48.780;9.204;2022-07-10T05:41:17;4.35;;;3.13;;
46487;SDS011;32202;48.780;9.204;2022-07-10T05:43:42;5.82;;;3.50;;
46487;SDS011;32202;48.780;9.204;2022-07-10T05:46:08;5.25;;;3.72;;
46487;SDS011;32202;48.780;9.204;2022-07-10T05:48:33;5.07;;;2.92;;
46487;SDS011;32202;48.780;9.204;2022-07-10T05:50:59;4.25;;;2.80;;
46487;SDS011;32202;48.780;9.204;2022-07-10T05:53:25;5.20;;;2.95;;
46487;SDS011;32202;48.780;9.204;2022-07-10T05:55:50;4.18;;;2.80;;
46487;SDS011;32202;48.780;9.204;2022-07-10T05:58:16;5.85;;;3.10;;
46487;SDS011;32202;48.780;9.204;2022-07-10T06:00:42;4.25;;;3.00;;
46487;SDS011;32202;48.780;9.204;2022-07-10T06:03:09;6.43;;;3.05;;
46487;SDS011;32202;48.780;9.204;2022-07-10T06:05:35;8.73;;;2.80;;
46487;SDS011;32202;48.780;9.204;2022-07-10T06:08:01;4.32;;;2.47;;
46487;SDS011;32202;48.780;9.204;2022-07-10T06:10:27;6.20;;;2.15;;
46487;SDS011;32202;48.780;9.204;2022-07-10T06:12:53;2.42;;;1.75;;
46487;SDS011;32202;48.780;9.204;2022-07-10T06:15:18;5.68;;;2.10;;
46487;SDS011;32202;48.780;9.204;2022-07-10T06:17:44;7.03;;;2.35;;
46487;SDS011;32202;48.780;9.204;2022-07-10T06:20:10;5.90;;;2.38;;
46487;SDS011;32202;48.780;9.204;2022-07-10T06:22:36;5.70;;;2.20;;
46487;SDS011;32202;48.780;9.204;2022-07-10T06:25:05;4.70;;;2.45;;
46487;SDS011;32202;48.780;9.204;2022-07-10T06:27:31;6.45;;;2.88;;
46487;SDS011;32202;48.780;9.204;2022-07-10T06:29:57;4.65;;;2.65;;
46487;SDS011;32202;48.780;9.204;2022-07-10T06:32:23;6.47;;;4.43;;
46487;SDS011;32202;48.780;9.204;2022-07-10T06:34:53;5.50;;;2.72;;
46487;SDS011;32202;48.780;9.204;2022-07-10T06:37:19;7.30;;;3.70;;
46487;SDS011;32202;48.780;9.204;2022-07-10T06:39:45;5.45;;;2.70;;
46487;SDS011;32202;48.780;9.204;2022-07-10T06:42:12;6.93;;;3.85;;
46487;SDS011;32202;48.780;9.204;2022-07-10T06:44:38;5.57;;;3.25;;
46487;SDS011;32202;48.780;9.204;2022-07-10T06:47:04;7.30;;;4.65;;
46487;SDS011;32202;48.780;9.204;2022-07-10T06:49:50;13.57;;;8.65;;
46487;SDS011;32202;48.780;9.204;2022-07-10T06:52:15;6.65;;;4.40;;
46487;SDS011;32202;48.780;9.204;2022-07-10T06:54:42;9.88;;;6.38;;
46487;SDS011;32202;48.780;9.204;2022-07-10T06:57:08;12.50;;;6.80;;
46487;SDS011;32202;48.780;9.204;2022-07-10T06:59:33;23.40;;;16.90;;
46487;SDS011;32202;48.780;9.204;2022-07-10T07:01:59;20.30;;;13.07;;
46487;SDS011;32202;48.780;9.204;2022-07-10T07:04:25;7.90;;;4.97;;
46487;SDS011;32202;48.780;9.204;2022-07-10T07:06:50;23.27;;;15.38;;
46487;SDS011;32202;48.780;9.204;2022-07-10T07:09:16;17.25;;;11.48;;
46487;SDS011;32202;48.780;9.204;2022-07-10T07:11:42;6.95;;;3.15;;
46487;SDS011;32202;48.780;9.204;2022-07-10T07:14:07;23.70;;;17.95;;
46487;SDS011;32202;48.780;9.204;2022-07-10T07:16:33;5.93;;;3.67;;
46487;SDS011;32202;48.780;9.204;2022-07-10T07:19:08;7.47;;;2.70;;
46487;SDS011;32202;48.780;9.204;2022-07-10T07:21:42;17.52;;;11.00;;
46487;SDS011;32202;48.780;9.204;2022-07-10T07:24:26;11.48;;;4.78;;
46487;SDS011;32202;48.780;9.204;2022-07-10T07:26:52;26.38;;;17.80;;
46487;SDS011;32202;48.780;9.204;2022-07-10T07:29:17;6.88;;;4.40;;
46487;SDS011;32202;48.780;9.204;2022-07-10T07:31:44;3.90;;;2.13;;
46487;SDS011;32202;48.780;9.204;2022-07-10T07:34:10;18.10;;;11.35;;
46487;SDS011;32202;48.780;9.204;2022-07-10T07:36:36;31.48;;;20.70;;
46487;SDS011;32202;48.780;9.204;2022-07-10T07:39:02;13.95;;;9.02;;
46487;SDS011;32202;48.780;9.204;2022-07-10T07:41:28;11.43;;;5.72;;
46487;SDS011;32202;48.780;9.204;2022-07-10T07:43:53;11.77;;;8.05;;
46487;SDS011;32202;48.780;9.204;2022-07-10T07:46:19;7.30;;;2.95;;
46487;SDS011;32202;48.780;9.204;2022-07-10T07:48:45;7.38;;;4.68;;
46487;SDS011;32202;48.780;9.204;2022-07-10T07:51:11;12.38;;;7.03;;
46487;SDS011;32202;48.780;9.204;2022-07-10T07:53:37;11.80;;;6.53;;
46487;SDS011;32202;48.780;9.204;2022-07-10T07:56:02;6.72;;;2.90;;
46487;SDS011;32202;48.780;9.204;2022-07-10T07:58:28;9.85;;;6.35;;
46487;SDS011;32202;48.780;9.204;2022-07-10T08:00:54;4.35;;;2.53;;
46487;SDS011;32202;48.780;9.204;2022-07-10T08:03:21;6.70;;;3.38;;
46487;SDS011;32202;48.780;9.204;2022-07-10T08:05:47;5.55;;;2.88;;
46487;SDS011;32202;48.780;9.204;2022-07-10T08:08:13;3.38;;;1.70;;
46487;SDS011;32202;48.780;9.204;2022-07-10T08:10:38;4.97;;;1.67;;
46487;SDS011;32202;48.780;9.204;2022-07-10T08:13:04;2.97;;;1.60;;
46487;SDS011;32202;48.780;9.204;2022-07-10T08:15:30;5.85;;;1.52;;
46487;SDS011;32202;48.780;9.204;2022-07-10T08:17:56;15.18;;;8.85;;
46487;SDS011;32202;48.780;9.204;2022-07-10T08:20:23;3.63;;;1.90;;
46487;SDS011;32202;48.780;9.204;2022-07-10T08:22:50;4.50;;;2.08;;
46487;SDS011;32202;48.780;9.204;2022-07-10T08:25:18;3.58;;;1.90;;
46487;SDS011;32202;48.780;9.204;2022-07-10T08:27:44;4.50;;;2.38;;
46487;SDS011;32202;48.780;9.204;2022-07-10T08:30:10;5.18;;;1.60;;
46487;SDS011;32202;48.780;9.204;2022-07-10T08:32:36;5.85;;;1.50;;
46487;SDS011;32202;48.780;9.204;2022-07-10T08:35:03;2.45;;;1.40;;
46487;SDS011;32202;48.780;9.204;2022-07-10T08:37:30;3.72;;;1.55;;
46487;SDS011;32202;48.780;9.204;2022-07-10T08:40:02;2.33;;;1.10;;
46487;SDS011;32202;48.780;9.204;2022-07-10T08:42:28;3.47;;;1.33;;
46487;SDS011;32202;48.780;9.204;2022-07-10T08:44:57;3.00;;;1.33;;
46487;SDS011;32202;48.780;9.204;2022-07-10T08:47:22;3.88;;;1.52;;
46487;SDS011;32202;48.780;9.204;2022-07-10T08:49:50;3.30;;;1.42;;
46487;SDS011;32202;48.780;9.204;2022-07-10T08:52:26;3.88;;;1.30;;
46487;SDS011;32202;48.780;9.204;2022-07-10T08:54:59;1.92;;;1.20;;
46487;SDS011;32202;48.780;9.204;2022-07-10T08:57:24;2.63;;;1.23;;
46487;SDS011;32202;48.780;9.204;2022-07-10T08:59:51;4.38;;;1.30;;
46487;SDS011;32202;48.780;9.204;2022-07-10T09:02:17;4.18;;;1.45;;
46487;SDS011;32202;48.780;9.204;2022-07-10T09:04:42;3.33;;;1.30;;
46487;SDS011;32202;48.780;9.204;2022-07-10T09:07:08;2.47;;;1.08;;
46487;SDS011;32202;48.780;9.204;2022-07-10T09:09:53;2.20;;;0.90;;
46487;SDS011;32202;48.780;9.204;2022-07-10T09:12:20;3.33;;;1.30;;
46487;SDS011;32202;48.780;9.204;2022-07-10T09:14:47;3.97;;;1.42;;
46487;SDS011;32202;48.780;9.204;2022-07-10T09:17:12;2.53;;;1.45;;
46487;SDS011;32202;48.780;9.204;2022-07-10T09:19:38;3.63;;;1.10;;
46487;SDS011;32202;48.780;9.204;2022-07-10T09:22:08;6.13;;;1.40;;
46487;SDS011;32202;48.780;9.204;2022-07-10T09:24:42;3.42;;;1.08;;
46487;SDS011;32202;48.780;9.204;2022-07-10T09:27:09;3.70;;;1.73;;
46487;SDS011;32202;48.780;9.204;2022-07-10T09:32:20;3.08;;;0.93;;
46487;SDS011;32202;48.780;9.204;2022-07-10T09:34:46;3.60;;;0.95;;
46487;SDS011;32202;48.780;9.204;2022-07-10T09:40:00;3.40;;;1.00;;
46487;SDS011;32202;48.780;9.204;2022-07-10T09:42:38;3.60;;;1.58;;
46487;SDS011;32202;48.780;9.204;2022-07-10T09:48:00;4.38;;;1.15;;
46487;SDS011;32202;48.780;9.204;2022-07-10T09:50:32;3.13;;;1.40;;
46487;SDS011;32202;48.780;9.204;2022-07-10T09:53:00;2.08;;;1.05;;
46487;SDS011;32202;48.780;9.204;2022-07-10T09:55:28;1.95;;;0.80;;
46487;SDS011;32202;48.780;9.204;2022-07-10T09:57:55;2.90;;;1.10;;
46487;SDS011;32202;48.780;9.204;2022-07-10T10:00:22;2.25;;;1.08;;
46487;SDS011;32202;48.780;9.204;2022-07-10T10:02:52;2.65;;;0.88;;
46487;SDS011;32202;48.780;9.204;2022-07-10T10:05:26;3.38;;;2.00;;
46487;SDS011;32202;48.780;9.204;2022-07-10T10:08:00;3.75;;;1.90;;
46487;SDS011;32202;48.780;9.204;2022-07-10T10:10:31;2.45;;;2.03;;
46487;SDS011;32202;48.780;9.204;2022-07-10T10:12:59;3.10;;;1.83;;
46487;SDS011;32202;48.780;9.204;2022-07-10T10:15:28;2.67;;;1.73;;
46487;SDS011;32202;48.780;9.204;2022-07-10T10:17:56;4.07;;;1.33;;
46487;SDS011;32202;48.780;9.204;2022-07-10T10:20:23;6.75;;;3.65;;
46487;SDS011;32202;48.780;9.204;2022-07-10T10:23:05;24.55;;;17.45;;
46487;SDS011;32202;48.780;9.204;2022-07-10T10:25:34;41.70;;;32.25;;
46487;SDS011;32202;48.780;9.204;2022-07-10T10:28:01;7.18;;;4.55;;
46487;SDS011;32202;48.780;9.204;2022-07-10T10:30:29;29.17;;;22.00;;
46487;SDS011;32202;48.780;9.204;2022-07-10T10:32:55;2.15;;;1.50;;
46487;SDS011;32202;48.780;9.204;2022-07-10T10:38:13;8.07;;;5.00;;
46487;SDS011;32202;48.780;9.204;2022-07-10T10:40:40;4.22;;;2.53;;
46487;SDS011;32202;48.780;9.204;2022-07-10T10:43:22;4.20;;;1.77;;
46487;SDS011;32202;48.780;9.204;2022-07-10T10:45:49;3.60;;;1.60;;
46487;SDS011;32202;48.780;9.204;2022-07-10T10:48:17;5.05;;;2.88;;
46487;SDS011;32202;48.780;9.204;2022-07-10T10:50:52;5.50;;;3.30;;
46487;SDS011;32202;48.780;9.204;2022-07-10T10:53:19;5.75;;;2.45;;
46487;SDS011;32202;48.780;9.204;2022-07-10T10:58:39;2.97;;;1.50;;
46487;SDS011;32202;48.780;9.204;2022-07-10T11:06:40;2.40;;;1.08;;
46487;SDS011;32202;48.780;9.204;2022-07-10T11:09:21;4.38;;;1.80;;
46487;SDS011;32202;48.780;9.204;2022-07-10T11:14:24;2.65;;;1.30;;
46487;SDS011;32202;48.780;9.204;2022-07-10T11:16:53;2.35;;;1.25;;
46487;SDS011;32202;48.780;9.204;2022-07-10T11:19:24;2.55;;;1.42;;
46487;SDS011;32202;48.780;9.204;2022-07-10T11:21:55;2.55;;;1.15;;
46487;SDS011;32202;48.780;9.204;2022-07-10T11:24:42;2.42;;;1.15;;
46487;SDS011;32202;48.780;9.204;2022-07-10T11:30:12;2.40;;;1.27;;
46487;SDS011;32202;48.780;9.204;2022-07-10T11:32:38;2.25;;;1.10;;
46487;SDS011;32202;48.780;9.204;2022-07-10T11:35:13;14.13;;;10.73;;
46487;SDS011;32202;48.780;9.204;2022-07-10T11:37:49;6.45;;;2.33;;
46487;SDS011;32202;48.780;9.204;2022-07-10T11:40:18;4.75;;;2.15;;
46487;SDS011;32202;48.780;9.204;2022-07-10T11:42:51;14.07;;;11.25;;
46487;SDS011;32202;48.780;9.204;2022-07-10T11:45:25;3.40;;;1.67;;
46487;SDS011;32202;48.780;9.204;2022-07-10T11:47:52;4.90;;;2.30;;
46487;SDS011;32202;48.780;9.204;2022-07-10T11:50:18;6.10;;;4.18;;
46487;SDS011;32202;48.780;9.204;2022-07-10T11:52:45;3.30;;;1.30;;
46487;SDS011;32202;48.780;9.204;2022-07-10T11:55:20;2.13;;;1.40;;
46487;SDS011;32202;48.780;9.204;2022-07-10T11:57:47;3.58;;;1.60;;
46487;SDS011;32202;48.780;9.204;2022-07-10T12:02:48;3.42;;;1.20;;
46487;SDS011;32202;48.780;9.204;2022-07-10T12:05:30;3.55;;;0.95;;
46487;SDS011;32202;48.780;9.204;2022-07-10T12:08:00;1.85;;;0.98;;
46487;SDS011;32202;48.780;9.204;2022-07-10T12:10:30;1.80;;;1.00;;
46487;SDS011;32202;48.780;9.204;2022-07-10T12:13:06;2.03;;;0.90;;
46487;SDS011;32202;48.780;9.204;2022-07-10T12:15:52;2.63;;;0.85;;
46487;SDS011;32202;48.780;9.204;2022-07-10T12:18:21;2.50;;;0.90;;
46487;SDS011;32202;48.780;9.204;2022-07-10T12:20:48;3.83;;;1.00;;
46487;SDS011;32202;48.780;9.204;2022-07-10T12:23:15;1.10;;;0.70;;
46487;SDS011;32202;48.780;9.204;2022-07-10T12:25:42;5.47;;;0.90;;
46487;SDS011;32202;48.780;9.204;2022-07-10T12:28:08;1.48;;;0.98;;
46487;SDS011;32202;48.780;9.204;2022-07-10T12:30:38;2.00;;;1.00;;
46487;SDS011;32202;48.780;9.204;2022-07-10T12:33:08;2.80;;;0.82;;
46487;SDS011;32202;48.780;9.204;2022-07-10T12:35:53;1.73;;;0.93;;
46487;SDS011;32202;48.780;9.204;2022-07-10T12:38:23;1.65;;;0.60;;
46487;SDS011;32202;48.780;9.204;2022-07-10T12:43:33;5.03;;;0.93;;
46487;SDS011;32202;48.780;9.204;2022-07-10T12:46:10;1.67;;;1.00;;
46487;SDS011;32202;48.780;9.204;2022-07-10T12:49:00;2.03;;;0.60;;
46487;SDS011;32202;48.780;9.204;2022-07-10T12:57:02;2.33;;;0.88;;
46487;SDS011;32202;48.780;9.204;2022-07-10T12:59:31;4.28;;;1.45;;
46487;SDS011;32202;48.780;9.204;2022-07-10T13:02:13;10.80;;;9.68;;
46487;SDS011;32202;48.780;9.204;2022-07-10T13:04:53;4.47;;;3.33;;
46487;SDS011;32202;48.780;9.204;2022-07-10T13:07:21;5.80;;;4.90;;
46487;SDS011;32202;48.780;9.204;2022-07-10T13:10:04;3.97;;;2.38;;
46487;SDS011;32202;48.780;9.204;2022-07-10T13:12:31;3.30;;;1.88;;
46487;SDS011;32202;48.780;9.204;2022-07-10T13:14:58;1.75;;;0.85;;
46487;SDS011;32202;48.780;9.204;2022-07-10T13:17:24;5.25;;;1.83;;
46487;SDS011;32202;48.780;9.204;2022-07-10T13:19:50;4.93;;;2.33;;
46487;SDS011;32202;48.780;9.204;2022-07-10T13:22:16;5.80;;;1.13;;
46487;SDS011;32202;48.780;9.204;2022-07-10T13:24:42;1.55;;;0.85;;
46487;SDS011;32202;48.780;9.204;2022-07-10T13:27:08;2.70;;;0.90;;
46487;SDS011;32202;48.780;9.204;2022-07-10T13:29:34;1.60;;;0.93;;
46487;SDS011;32202;48.780;9.204;2022-07-10T13:31:59;4.45;;;1.25;;
46487;SDS011;32202;48.780;9.204;2022-07-10T13:34:25;49.83;;;36.75;;
46487;SDS011;32202;48.780;9.204;2022-07-10T13:36:50;3.92;;;2.03;;
46487;SDS011;32202;48.780;9.204;2022-07-10T13:39:19;2.30;;;1.27;;
46487;SDS011;32202;48.780;9.204;2022-07-10T13:41:44;3.22;;;1.13;;
46487;SDS011;32202;48.780;9.204;2022-07-10T13:44:10;14.02;;;8.85;;
46487;SDS011;32202;48.780;9.204;2022-07-10T13:46:36;15.27;;;10.52;;
46487;SDS011;32202;48.780;9.204;2022-07-10T13:49:02;9.88;;;5.65;;
46487;SDS011;32202;48.780;9.204;2022-07-10T13:51:28;5.90;;;1.83;;
46487;SDS011;32202;48.780;9.204;2022-07-10T13:53:54;2.58;;;1.08;;
46487;SDS011;32202;48.780;9.204;2022-07-10T13:56:20;23.63;;;16.02;;
46487;SDS011;32202;48.780;9.204;2022-07-10T13:58:45;6.28;;;4.13;;
46487;SDS011;32202;48.780;9.204;2022-07-10T14:01:11;3.67;;;1.30;;
46487;SDS011;32202;48.780;9.204;2022-07-10T14:03:37;3.60;;;1.00;;
46487;SDS011;32202;48.780;9.204;2022-07-10T14:06:02;2.20;;;1.02;;
46487;SDS011;32202;48.780;9.204;2022-07-10T14:08:28;4.55;;;2.30;;
46487;SDS011;32202;48.780;9.204;2022-07-10T14:10:54;2.63;;;1.02;;
46487;SDS011;32202;48.780;9.204;2022-07-10T14:13:19;2.83;;;1.02;;
46487;SDS011;32202;48.780;9.204;2022-07-10T14:15:45;2.58;;;1.00;;
46487;SDS011;32202;48.780;9.204;2022-07-10T14:18:10;2.25;;;1.05;;
46487;SDS011;32202;48.780;9.204;2022-07-10T14:20:36;5.10;;;1.98;;
46487;SDS011;32202;48.780;9.204;2022-07-10T14:23:20;4.50;;;2.00;;
46487;SDS011;32202;48.780;9.204;2022-07-10T14:25:46;3.85;;;0.95;;
46487;SDS011;32202;48.780;9.204;2022-07-10T14:28:13;4.90;;;2.08;;
46487;SDS011;32202;48.780;9.204;2022-07-10T14:30:42;5.18;;;3.10;;
46487;SDS011;32202;48.780;9.204;2022-07-10T14:33:08;6.85;;;4.20;;
46487;SDS011;32202;48.780;9.204;2022-07-10T14:35:34;6.47;;;3.80;;
46487;SDS011;32202;48.780;9.204;2022-07-10T14:38:00;8.00;;;4.55;;
46487;SDS011;32202;48.780;9.204;2022-07-10T14:40:25;6.53;;;2.65;;
46487;SDS011;32202;48.780;9.204;2022-07-10T14:42:51;4.40;;;1.30;;
46487;SDS011;32202;48.780;9.204;2022-07-10T14:45:16;5.45;;;3.22;;
46487;SDS011;32202;48.780;9.204;2022-07-10T14:47:43;16.33;;;9.20;;
46487;SDS011;32202;48.780;9.204;2022-07-10T14:50:09;5.43;;;3.03;;
46487;SDS011;32202;48.780;9.204;2022-07-10T14:52:34;5.82;;;2.53;;
46487;SDS011;32202;48.780;9.204;2022-07-10T14:55:02;11.82;;;6.43;;
46487;SDS011;32202;48.780;9.204;2022-07-10T14:57:28;5.53;;;2.78;;
46487;SDS011;32202;48.780;9.204;2022-07-10T14:59:53;7.05;;;3.17;;
46487;SDS011;32202;48.780;9.204;2022-07-10T15:02:19;1.88;;;0.90;;
46487;SDS011;32202;48.780;9.204;2022-07-10T15:04:44;3.70;;;2.45;;
46487;SDS011;32202;48.780;9.204;2022-07-10T15:07:10;5.47;;;2.20;;
46487;SDS011;32202;48.780;9.204;2022-07-10T15:09:35;8.10;;;2.35;;
46487;SDS011;32202;48.780;9.204;2022-07-10T15:12:01;7.97;;;4.45;;
46487;SDS011;32202;48.780;9.204;2022-07-10T15:14:27;16.25;;;9.50;;
46487;SDS011;32202;48.780;9.204;2022-07-10T15:16:54;4.43;;;1.98;;
46487;SDS011;32202;48.780;9.204;2022-07-10T15:19:19;7.88;;;3.50;;